createdAt,value
2018-07-27T06:56:15.378Z,26.98
2018-07-27T06:57:42.360Z,26.94
2018-07-27T06:59:09.850Z,26.88
2018-07-27T07:00:47.995Z,26.82
2018-07-27T07:02:33.438Z,26.84
2018-07-27T07:03:59.557Z,26.87
2018-07-27T07:05:26.660Z,26.84
2018-07-27T07:07:52.204Z,26.88
2018-07-27T07:09:20.459Z,26.82
2018-07-27T07:10:46.247Z,26.74
2018-07-27T07:12:13.830Z,26.74
2018-07-27T07:13:40.509Z,26.78
2018-07-27T07:15:07.940Z,26.85
2018-07-27T07:16:34.691Z,26.91
2018-07-27T07:18:02.016Z,26.99
2018-07-27T07:19:29.604Z,27.06
2018-07-27T07:20:58.357Z,27.13
2018-07-27T07:22:25.089Z,27.19
2018-07-27T07:23:52.187Z,27.26
2018-07-27T07:25:20.029Z,27.20
2018-07-27T07:26:47.388Z,27.13
2018-07-27T07:28:16.063Z,27.12
2018-07-27T07:29:43.059Z,27.13
2018-07-27T07:31:08.585Z,27.16
2018-07-27T07:32:37.003Z,27.21
2018-07-27T07:34:04.176Z,27.14
2018-07-27T07:35:31.329Z,27.11
2018-07-27T07:36:57.671Z,27.04
2018-07-27T07:38:24.799Z,27.07
2018-07-27T07:39:53.245Z,27.08
2018-07-27T07:41:19.932Z,27.12
2018-07-27T07:42:46.655Z,27.16
2018-07-27T07:44:14.118Z,27.19
2018-07-27T07:45:41.801Z,27.28
2018-07-27T07:47:09.474Z,27.31
2018-07-27T07:48:36.379Z,27.35
2018-07-27T07:50:04.014Z,27.44
2018-07-27T07:51:31.667Z,27.51
2018-07-27T07:52:59.167Z,27.58
2018-07-27T07:54:26.149Z,27.58
2018-07-27T07:55:53.705Z,27.59
2018-07-27T07:57:21.556Z,27.62
2018-07-27T07:58:48.154Z,27.69
2018-07-27T08:00:16.888Z,27.76
2018-07-27T08:01:43.563Z,27.83
2018-07-27T08:03:11.186Z,27.88
2018-07-27T08:04:37.956Z,27.95
2018-07-27T08:06:05.439Z,27.87
2018-07-27T08:07:33.182Z,27.81
2018-07-27T08:09:01.703Z,27.81
2018-07-27T08:10:29.386Z,27.87
2018-07-27T08:11:55.984Z,27.96
2018-07-27T08:13:23.569Z,27.95
2018-07-27T08:14:51.325Z,27.94
2018-07-27T08:16:20.074Z,27.99
2018-07-27T08:17:46.732Z,28.01
2018-07-27T08:19:13.726Z,28.02
2018-07-27T08:20:41.347Z,28.04
2018-07-27T08:22:08.936Z,28.09
2018-07-27T08:23:36.442Z,28.16
2018-07-27T08:25:03.442Z,28.19
2018-07-27T08:26:30.978Z,28.19
2018-07-27T08:27:57.855Z,28.22
2018-07-27T08:29:24.814Z,28.33
2018-07-27T08:30:52.406Z,28.41
2018-07-27T08:32:20.622Z,28.41
2018-07-27T08:33:47.437Z,28.42
2018-07-27T08:35:15.125Z,28.46
2018-07-27T08:36:42.782Z,28.43
2018-07-27T08:38:10.510Z,28.35
2018-07-27T08:39:38.128Z,28.28
2018-07-27T08:41:05.951Z,28.22
2018-07-27T08:42:33.422Z,28.28
2018-07-27T08:44:00.836Z,28.32
2018-07-27T08:45:29.152Z,28.45
2018-07-27T08:46:55.201Z,28.52
2018-07-27T08:48:22.955Z,28.55
2018-07-27T08:49:50.583Z,28.63
2018-07-27T08:51:19.360Z,28.64
2018-07-27T08:52:47.140Z,28.57
2018-07-27T08:54:13.024Z,28.50
2018-07-27T08:55:43.673Z,28.37
2018-07-27T08:57:08.189Z,28.26
2018-07-27T08:58:36.890Z,28.17
2018-07-27T09:00:03.512Z,28.20
2018-07-27T09:01:30.615Z,28.24
2018-07-27T09:02:58.329Z,28.28
2018-07-27T09:04:27.037Z,28.28
2018-07-27T09:05:53.411Z,28.31
2018-07-27T09:07:22.147Z,28.47
2018-07-27T09:08:49.738Z,28.67
2018-07-27T09:10:17.386Z,28.73
2018-07-27T09:11:45.078Z,28.82
2018-07-27T09:13:11.670Z,28.92
2018-07-27T09:14:39.482Z,29.00
2018-07-27T09:16:07.264Z,29.07
2018-07-27T09:17:34.933Z,29.12
2018-07-27T09:19:02.582Z,29.21
2018-07-27T09:20:31.253Z,29.24
2018-07-27T09:21:58.014Z,29.24
2018-07-27T09:23:25.763Z,29.34
2018-07-27T09:24:52.909Z,29.34
2018-07-27T09:26:19.351Z,29.33
2018-07-27T09:27:48.104Z,29.40
2018-07-27T09:29:14.655Z,29.37
2018-07-27T09:30:42.565Z,29.33
2018-07-27T09:32:10.187Z,29.35
2018-07-27T09:33:38.452Z,29.43
2018-07-27T09:35:05.140Z,29.40
2018-07-27T09:36:33.956Z,29.32
2018-07-27T09:38:00.636Z,29.18
2018-07-27T09:39:28.164Z,29.08
2018-07-27T09:40:55.869Z,29.06
2018-07-27T09:42:23.407Z,29.11
2018-07-27T09:43:51.624Z,29.16
2018-07-27T09:45:17.659Z,29.22
2018-07-27T09:46:46.360Z,29.35
2018-07-27T09:48:13.137Z,29.45
2018-07-27T09:49:40.727Z,29.53
2018-07-27T09:51:08.465Z,29.51
2018-07-27T09:52:35.543Z,29.50
2018-07-27T09:54:03.231Z,29.56
2018-07-27T09:55:30.620Z,29.56
2018-07-27T09:56:57.843Z,29.45
2018-07-27T09:58:25.345Z,29.48
2018-07-27T09:59:52.438Z,29.50
2018-07-27T10:01:19.681Z,29.54
2018-07-27T10:02:47.331Z,29.52
2018-07-27T10:04:15.942Z,29.52
2018-07-27T10:05:42.610Z,29.44
2018-07-27T10:07:10.209Z,29.38
2018-07-27T10:08:37.596Z,29.44
2018-07-27T10:10:05.223Z,29.49
2018-07-27T10:11:32.634Z,29.54
2018-07-27T10:13:00.316Z,29.60
2018-07-27T10:14:28.914Z,29.68
2018-07-27T10:15:55.593Z,29.79
2018-07-27T10:17:23.122Z,29.85
2018-07-27T10:18:50.696Z,29.92
2018-07-27T10:20:18.311Z,30.04
2018-07-27T10:21:46.084Z,30.07
2018-07-27T10:23:13.989Z,30.10
2018-07-27T10:24:40.711Z,30.03
2018-07-27T10:26:08.441Z,29.91
2018-07-27T10:27:36.967Z,29.89
2018-07-27T10:29:03.422Z,29.87
2018-07-27T10:30:32.212Z,29.94
2018-07-27T10:31:58.914Z,30.05
2018-07-27T10:33:26.479Z,30.13
2018-07-27T10:34:55.093Z,30.19
2018-07-27T10:36:21.900Z,30.33
2018-07-27T10:37:49.691Z,30.42
2018-07-27T10:39:17.167Z,30.54
2018-07-27T10:40:44.408Z,30.58
2018-07-27T10:42:12.559Z,30.54
2018-07-27T10:43:39.015Z,30.61
2018-07-27T10:45:07.659Z,30.51
2018-07-27T10:46:34.324Z,30.47
2018-07-27T10:48:02.924Z,30.41
2018-07-27T10:49:29.630Z,30.24
2018-07-27T10:50:57.410Z,30.04
2018-07-27T10:52:25.797Z,29.94
2018-07-27T10:53:52.471Z,30.00
2018-07-27T10:55:21.121Z,30.15
2018-07-27T10:56:47.828Z,30.38
2018-07-27T10:58:15.585Z,30.50
2018-07-27T10:59:43.702Z,30.53
2018-07-27T11:01:10.263Z,30.59
2018-07-27T11:02:37.558Z,30.67
2018-07-27T11:04:05.283Z,30.82
2018-07-27T11:05:33.032Z,30.90
2018-07-27T11:07:01.482Z,30.94
2018-07-27T11:08:28.147Z,31.05
2018-07-27T11:09:55.558Z,31.12
2018-07-27T11:11:24.071Z,31.07
2018-07-27T11:12:50.562Z,31.02
2018-07-27T11:14:18.326Z,31.09
2018-07-27T11:15:45.423Z,31.09
2018-07-27T11:17:13.218Z,31.22
2018-07-27T11:18:40.840Z,31.23
2018-07-27T11:20:08.617Z,31.21
2018-07-27T11:21:36.211Z,31.34
2018-07-27T11:23:04.322Z,31.49
2018-07-27T11:24:31.771Z,31.72
2018-07-27T11:25:58.385Z,31.67
2018-07-27T11:27:26.114Z,31.84
2018-07-27T11:28:53.379Z,32.07
2018-07-27T11:30:21.455Z,32.25
2018-07-27T11:31:48.121Z,32.20
2018-07-27T11:33:16.066Z,32.28
2018-07-27T11:34:42.851Z,32.47
2018-07-27T11:36:10.262Z,32.69
2018-07-27T11:37:37.976Z,32.72
2018-07-27T11:39:05.359Z,32.79
2018-07-27T11:40:32.899Z,32.78
2018-07-27T11:42:00.433Z,32.64
2018-07-27T11:43:27.334Z,32.57
2018-07-27T11:44:54.984Z,32.69
2018-07-27T11:46:22.425Z,32.84
2018-07-27T11:47:50.308Z,32.95
2018-07-27T11:49:17.911Z,32.93
2018-07-27T11:50:44.886Z,32.88
2018-07-27T11:52:12.594Z,32.69
2018-07-27T11:53:40.382Z,32.39
2018-07-27T11:55:08.154Z,32.24
2018-07-27T11:56:35.462Z,32.16
2018-07-27T11:58:03.073Z,32.32
2018-07-27T11:59:31.111Z,32.52
2018-07-27T12:00:58.753Z,32.68
2018-07-27T12:02:26.823Z,32.58
2018-07-27T12:03:53.557Z,32.43
2018-07-27T12:05:21.689Z,32.62
2018-07-27T12:06:47.669Z,32.79
2018-07-27T12:08:15.465Z,32.99
2018-07-27T12:09:43.220Z,33.18
2018-07-27T12:11:11.932Z,33.27
2018-07-27T12:12:38.602Z,33.30
2018-07-27T12:14:06.498Z,33.32
2018-07-27T12:15:34.077Z,33.35
2018-07-27T12:17:01.848Z,33.49
2018-07-27T12:18:29.292Z,33.63
2018-07-27T12:19:56.877Z,33.70
2018-07-27T12:21:24.675Z,33.85
2018-07-27T12:22:52.360Z,34.13
2018-07-27T12:24:19.857Z,34.25
2018-07-27T12:25:47.631Z,34.27
2018-07-27T12:27:14.501Z,34.31
2018-07-27T12:28:42.039Z,34.36
2018-07-27T12:30:09.877Z,34.52
2018-07-27T12:31:37.623Z,34.69
2018-07-27T12:33:05.215Z,34.65
2018-07-27T12:34:32.926Z,34.47
2018-07-27T12:36:01.595Z,34.36
2018-07-27T12:37:28.286Z,34.19
2018-07-27T12:38:55.918Z,34.04
2018-07-27T12:40:23.584Z,34.10
2018-07-27T12:41:50.649Z,34.19
2018-07-27T12:43:18.488Z,34.14
2018-07-27T12:44:47.021Z,34.25
2018-07-27T12:46:13.177Z,34.33
2018-07-27T12:47:41.472Z,34.29
2018-07-27T12:49:08.223Z,34.23
2018-07-27T12:50:35.809Z,34.18
2018-07-27T12:52:04.591Z,34.14
2018-07-27T12:53:32.262Z,34.23
2018-07-27T12:54:59.867Z,34.27
2018-07-27T12:56:27.598Z,34.10
2018-07-27T12:57:54.892Z,34.26
2018-07-27T12:59:21.190Z,34.30
2018-07-27T13:00:49.946Z,34.32
2018-07-27T13:02:16.792Z,34.30
2018-07-27T13:03:45.507Z,34.24
2018-07-27T13:05:13.265Z,34.14
2018-07-27T13:06:39.975Z,34.23
2018-07-27T13:08:07.833Z,34.25
2018-07-27T13:09:35.585Z,34.30
2018-07-27T13:11:04.205Z,34.17
2018-07-27T13:12:31.847Z,33.83
2018-07-27T13:13:58.449Z,33.60
2018-07-27T13:15:26.290Z,33.59
2018-07-27T13:16:53.734Z,33.65
2018-07-27T13:18:20.861Z,33.68
2018-07-27T13:19:48.269Z,33.62
2018-07-27T13:21:15.923Z,33.69
2018-07-27T13:22:43.675Z,33.75
2018-07-27T13:24:11.070Z,33.43
2018-07-27T13:25:39.838Z,33.25
2018-07-27T13:27:06.435Z,33.22
2018-07-27T13:28:34.194Z,33.22
2018-07-27T13:30:02.025Z,33.12
2018-07-27T13:31:29.642Z,32.91
2018-07-27T13:32:58.543Z,32.69
2018-07-27T13:34:24.808Z,32.60
2018-07-27T13:35:53.598Z,32.52
2018-07-27T13:37:19.808Z,32.42
2018-07-27T13:38:47.545Z,32.39
2018-07-27T13:40:15.161Z,32.41
2018-07-27T13:41:42.980Z,32.37
2018-07-27T13:43:10.730Z,32.23
2018-07-27T13:44:38.202Z,32.05
2018-07-27T13:46:05.869Z,31.93
2018-07-27T13:47:34.506Z,31.88
2018-07-27T13:49:00.956Z,31.77
2018-07-27T13:50:28.858Z,31.72
2018-07-27T13:51:56.649Z,31.73
2018-07-27T13:53:23.819Z,31.69
2018-07-27T13:54:51.116Z,31.65
2018-07-27T13:56:18.852Z,31.63
2018-07-27T13:57:47.567Z,31.58
2018-07-27T13:59:14.285Z,31.57
2018-07-27T14:00:42.050Z,31.60
2018-07-27T14:02:09.576Z,31.57
2018-07-27T14:03:37.304Z,31.57
2018-07-27T14:05:04.933Z,31.45
2018-07-27T14:06:32.614Z,31.41
2018-07-27T14:08:00.355Z,31.40
2018-07-27T14:09:28.018Z,31.36
2018-07-27T14:10:55.749Z,31.32
2018-07-27T14:12:24.329Z,31.28
2018-07-27T14:13:52.207Z,31.26
2018-07-27T14:15:18.783Z,31.24
2018-07-27T14:16:46.503Z,31.21
2018-07-27T14:18:14.012Z,31.20
2018-07-27T14:19:41.818Z,31.13
2018-07-27T14:21:09.459Z,31.11
2018-07-27T14:22:37.152Z,31.11
2018-07-27T14:24:04.732Z,31.09
2018-07-27T14:25:33.409Z,31.09
2018-07-27T14:27:01.043Z,31.11
2018-07-27T14:28:27.333Z,31.11
2018-07-27T14:29:55.983Z,31.10
2018-07-27T14:31:22.783Z,31.07
2018-07-27T14:32:50.304Z,31.01
2018-07-27T14:34:18.062Z,30.89
2018-07-27T14:35:46.856Z,30.78
2018-07-27T14:37:13.969Z,30.74
2018-07-27T14:38:40.321Z,30.74
2018-07-27T14:40:09.004Z,30.71
2018-07-27T14:41:35.369Z,30.70
2018-07-27T14:43:02.900Z,30.71
2018-07-27T14:44:30.527Z,30.68
2018-07-27T14:45:57.625Z,30.61
2018-07-27T14:47:26.404Z,30.61
2018-07-27T14:48:53.599Z,30.60
2018-07-27T14:50:21.344Z,30.58
2018-07-27T14:51:47.685Z,30.60
2018-07-27T14:53:15.147Z,30.63
2018-07-27T14:54:42.897Z,30.59
2018-07-27T14:56:10.579Z,30.57
2018-07-27T14:57:38.069Z,30.58
2018-07-27T14:59:05.368Z,30.56
2018-07-27T15:00:33.029Z,30.53
2018-07-27T15:02:00.747Z,30.49
2018-07-27T15:03:28.386Z,30.49
2018-07-27T15:04:56.206Z,30.48
2018-07-27T15:06:23.522Z,30.48
2018-07-27T15:07:52.270Z,30.49
2018-07-27T15:09:19.026Z,30.47
2018-07-27T15:10:47.704Z,30.40
2018-07-27T15:12:15.458Z,30.38
2018-07-27T15:13:43.039Z,30.33
2018-07-27T15:15:09.796Z,30.21
2018-07-27T15:16:37.066Z,30.17
2018-07-27T15:18:04.676Z,30.08
2018-07-27T15:19:32.426Z,30.01
2018-07-27T15:21:00.072Z,30.01
2018-07-27T15:22:27.652Z,29.99
2018-07-27T15:23:55.423Z,29.97
2018-07-27T15:25:23.001Z,29.94
2018-07-27T15:26:50.822Z,29.94
2018-07-27T15:28:18.456Z,29.95
2018-07-27T15:29:46.280Z,29.95
2018-07-27T15:31:13.534Z,29.95
2018-07-27T15:32:40.855Z,29.94
2018-07-27T15:34:08.644Z,29.93
2018-07-27T15:35:37.263Z,29.89
2018-07-27T15:37:03.866Z,29.89
2018-07-27T15:38:31.429Z,29.87
2018-07-27T15:39:59.821Z,29.84
2018-07-27T15:41:26.427Z,29.81
2018-07-27T15:42:54.550Z,29.79
2018-07-27T15:44:21.020Z,29.76
2018-07-27T15:45:48.676Z,29.76
2018-07-27T15:47:15.916Z,29.71
2018-07-27T15:48:43.617Z,29.66
2018-07-27T15:50:11.291Z,29.64
2018-07-27T15:51:39.417Z,29.59
2018-07-27T15:53:06.121Z,29.58
2018-07-27T15:54:33.736Z,29.57
2018-07-27T15:56:02.353Z,29.53
2018-07-27T15:57:28.823Z,29.52
2018-07-27T15:58:57.301Z,29.51
2018-07-27T16:00:24.486Z,29.51
2018-07-27T16:01:51.198Z,29.47
2018-07-27T16:03:18.964Z,29.42
2018-07-27T16:04:47.436Z,29.37
2018-07-27T16:06:13.057Z,29.33
2018-07-27T16:07:40.767Z,29.31
2018-07-27T16:09:08.538Z,29.27
2018-07-27T16:10:36.036Z,29.23
2018-07-27T16:12:03.743Z,29.21
2018-07-27T16:13:31.314Z,29.20
2018-07-27T16:14:58.776Z,29.17
2018-07-27T16:16:26.244Z,29.15
2018-07-27T16:17:53.924Z,29.13
2018-07-27T16:19:21.540Z,29.12
2018-07-27T16:20:48.952Z,29.12
2018-07-27T16:22:16.666Z,29.08
2018-07-27T16:23:43.833Z,29.08
2018-07-27T16:25:12.495Z,29.02
2018-07-27T16:26:39.750Z,28.99
2018-07-27T16:28:06.139Z,28.96
2018-07-27T16:29:34.647Z,28.92
2018-07-27T16:31:02.355Z,28.89
2018-07-27T16:32:28.985Z,28.89
2018-07-27T16:33:56.767Z,28.90
2018-07-27T16:35:24.402Z,28.88
2018-07-27T16:36:52.102Z,28.87
2018-07-27T16:38:20.895Z,28.82
2018-07-27T16:39:47.525Z,28.79
2018-07-27T16:41:15.199Z,28.70
2018-07-27T16:42:43.836Z,28.66
2018-07-27T16:44:10.533Z,28.62
2018-07-27T16:45:38.168Z,28.59
2018-07-27T16:47:05.942Z,28.56
2018-07-27T16:48:33.669Z,28.55
2018-07-27T16:50:01.144Z,28.49
2018-07-27T16:51:28.718Z,28.49
2018-07-27T16:52:57.383Z,28.50
2018-07-27T16:54:24.008Z,28.45
2018-07-27T16:55:51.694Z,28.43
2018-07-27T16:57:20.223Z,28.42
2018-07-27T16:58:46.968Z,28.41
2018-07-27T17:00:14.613Z,28.44
2018-07-27T17:01:43.385Z,28.43
2018-07-27T17:03:09.971Z,28.45
2018-07-27T17:04:37.615Z,28.43
2018-07-27T17:06:05.228Z,28.44
2018-07-27T17:07:33.883Z,28.44
2018-07-27T17:08:59.998Z,28.42
2018-07-27T17:10:27.710Z,28.35
2018-07-27T17:11:55.263Z,28.29
2018-07-27T17:13:23.349Z,28.25
2018-07-27T17:14:49.779Z,28.24
2018-07-27T17:16:17.271Z,28.20
2018-07-27T17:17:44.936Z,28.17
2018-07-27T17:19:12.543Z,28.17
2018-07-27T17:20:39.812Z,28.14
2018-07-27T17:22:07.177Z,28.11
2018-07-27T17:23:35.469Z,28.10
2018-07-27T17:25:02.116Z,28.05
2018-07-27T17:26:29.489Z,28.00
2018-07-27T17:27:58.102Z,27.88
2018-07-27T17:29:25.727Z,27.82
2018-07-27T17:30:52.355Z,27.78
2018-07-27T17:32:20.013Z,27.76
2018-07-27T17:33:47.563Z,27.73
2018-07-27T17:35:15.377Z,27.68
2018-07-27T17:36:43.917Z,27.65
2018-07-27T17:38:11.547Z,27.61
2018-07-27T17:39:38.124Z,27.59
2018-07-27T17:41:05.801Z,27.58
2018-07-27T17:42:33.472Z,27.53
2018-07-27T17:44:00.731Z,27.50
2018-07-27T17:45:28.082Z,27.49
2018-07-27T17:46:55.859Z,27.46
2018-07-27T17:48:23.706Z,27.46
2018-07-27T17:49:51.116Z,27.42
2018-07-27T17:51:18.053Z,27.40
2018-07-27T17:52:45.755Z,27.37
2018-07-27T17:54:14.427Z,27.36
2018-07-27T17:55:42.116Z,27.34
2018-07-27T17:57:09.719Z,27.34
2018-07-27T17:58:37.450Z,27.31
2018-07-27T18:00:03.943Z,27.30
2018-07-27T18:01:31.274Z,27.28
2018-07-27T18:02:59.721Z,27.23
2018-07-27T18:04:27.280Z,27.19
2018-07-27T18:05:55.081Z,27.17
2018-07-27T18:07:21.422Z,27.15
2018-07-27T18:08:49.775Z,27.14
2018-07-27T18:10:17.580Z,27.10
2018-07-27T18:11:44.313Z,27.10
2018-07-27T18:13:12.069Z,27.04
2018-07-27T18:14:40.388Z,27.02
2018-07-27T18:16:06.905Z,26.96
2018-07-27T18:17:35.284Z,26.92
2018-07-27T18:19:02.723Z,26.88
2018-07-27T18:20:29.121Z,26.86
2018-07-27T18:21:57.878Z,26.84
2018-07-27T18:23:24.313Z,26.78
2018-07-27T18:24:52.172Z,26.75
2018-07-27T18:26:20.846Z,26.70
2018-07-27T18:27:47.332Z,26.67
2018-07-27T18:29:14.963Z,26.64
2018-07-27T18:30:42.308Z,26.61
2018-07-27T18:32:09.641Z,26.55
2018-07-27T18:33:37.146Z,26.51
2018-07-27T18:35:04.826Z,26.42
2018-07-27T18:36:32.461Z,26.37
2018-07-27T18:38:00.082Z,26.34
2018-07-27T18:39:27.507Z,26.32
2018-07-27T18:40:55.249Z,26.27
2018-07-27T18:42:22.513Z,26.22
2018-07-27T18:43:51.170Z,26.18
2018-07-27T18:45:17.776Z,26.14
2018-07-27T18:46:46.471Z,26.10
2018-07-27T18:48:13.175Z,26.04
2018-07-27T18:49:41.888Z,25.99
2018-07-27T18:51:08.500Z,25.97
2018-07-27T18:52:36.110Z,25.95
2018-07-27T18:54:03.639Z,25.92
2018-07-27T18:55:31.067Z,25.92
2018-07-27T18:56:58.329Z,25.86
2018-07-27T18:58:25.997Z,25.82
2018-07-27T18:59:53.412Z,25.76
2018-07-27T19:01:21.138Z,25.70
2018-07-27T19:02:49.752Z,25.65
2018-07-27T19:04:16.522Z,25.59
2018-07-27T19:05:44.231Z,25.53
2018-07-27T19:07:12.720Z,25.50
2018-07-27T19:08:45.324Z,25.45
2018-07-27T19:10:06.873Z,25.42
2018-07-27T19:11:34.485Z,25.41
2018-07-27T19:13:03.035Z,25.37
2018-07-27T19:14:29.610Z,25.32
2018-07-27T19:15:57.390Z,25.26
2018-07-27T19:17:24.969Z,25.19
2018-07-27T19:18:52.582Z,25.14
2018-07-27T19:20:20.837Z,25.06
2018-07-27T19:21:47.442Z,25.02
2018-07-27T19:23:15.124Z,24.99
2018-07-27T19:24:42.633Z,24.97
2018-07-27T19:26:10.133Z,24.96
2018-07-27T19:27:37.872Z,24.91
2018-07-27T19:29:05.339Z,24.90
2018-07-27T19:30:32.723Z,24.89
2018-07-27T19:32:00.169Z,24.88
2018-07-27T19:33:27.284Z,24.87
2018-07-27T19:34:54.763Z,24.85
2018-07-27T19:36:22.357Z,24.80
2018-07-27T19:37:49.673Z,24.80
2018-07-27T19:39:18.282Z,24.78
2018-07-27T19:40:45.891Z,24.75
2018-07-27T19:42:12.115Z,24.69
2018-07-27T19:43:39.874Z,24.61
2018-07-27T19:45:07.438Z,24.56
2018-07-27T19:46:34.994Z,24.52
2018-07-27T19:48:02.737Z,24.53
2018-07-27T19:49:30.188Z,24.53
2018-07-27T19:50:57.544Z,24.55
2018-07-27T19:52:26.175Z,24.53
2018-07-27T19:53:52.746Z,24.51
2018-07-27T19:55:20.249Z,24.49
2018-07-27T19:56:47.842Z,24.47
2018-07-27T19:58:16.394Z,24.43
2018-07-27T20:00:11.884Z,24.39
2018-07-27T20:01:39.191Z,24.37
2018-07-27T20:12:57.821Z,24.38
